createdAt,value
2018-11-23T00:01:20.236Z,101958.83
2018-11-23T00:03:48.373Z,101959.23
2018-11-23T00:06:16.517Z,101961.38
2018-11-23T00:08:44.662Z,101962.30
2018-11-23T00:11:12.701Z,101952.84
2018-11-23T00:13:40.825Z,101955.39
2018-11-23T00:16:08.932Z,101949.81
2018-11-23T00:18:36.972Z,101958.41
2018-11-23T00:21:05.369Z,101961.44
2018-11-23T00:23:33.420Z,101958.01
2018-11-23T00:26:02.178Z,101960.14
2018-11-23T00:28:30.243Z,101965.72
2018-11-23T00:30:58.289Z,101970.86
2018-11-23T00:33:26.351Z,101967.89
2018-11-23T00:35:54.449Z,101975.61
2018-11-23T00:38:22.522Z,101972.16
2018-11-23T00:40:50.560Z,101971.69
2018-11-23T00:43:18.621Z,101969.13
2018-11-23T00:45:46.677Z,101972.11
2018-11-23T00:48:14.742Z,101966.16
2018-11-23T00:50:42.840Z,101969.14
2018-11-23T00:53:10.908Z,101966.14
2018-11-23T00:55:39.021Z,101961.86
2018-11-23T00:58:07.077Z,101959.28
2018-11-23T01:00:35.529Z,101961.00
2018-11-23T01:03:04.761Z,101962.30
2018-11-23T01:05:32.882Z,101956.22
2018-11-23T01:08:01.062Z,101956.27
2018-11-23T01:10:29.962Z,101948.95
2018-11-23T01:12:58.532Z,101948.09
2018-11-23T01:15:26.642Z,101941.64
2018-11-23T01:17:54.739Z,101946.39
2018-11-23T01:20:24.111Z,101941.24
2018-11-23T01:22:52.683Z,101939.08
2018-11-23T01:25:21.785Z,101930.89
2018-11-23T01:27:51.003Z,101931.33
2018-11-23T01:30:24.170Z,101937.77
2018-11-23T01:32:52.296Z,101939.48
2018-11-23T01:35:20.370Z,101940.75
2018-11-23T01:37:48.470Z,101930.88
2018-11-23T01:40:21.082Z,101933.48
2018-11-23T01:42:49.233Z,101930.45
2018-11-23T01:45:17.671Z,101930.04
2018-11-23T01:47:45.753Z,101931.75
2018-11-23T01:50:16.170Z,101930.47
2018-11-23T01:52:45.558Z,101920.20
2018-11-23T01:55:14.419Z,101925.75
2018-11-23T01:57:42.937Z,101923.59
2018-11-23T02:00:15.351Z,101918.02
2018-11-23T02:02:43.724Z,101912.44
2018-11-23T02:05:11.946Z,101917.61
2018-11-23T02:07:40.139Z,101913.73
2018-11-23T02:10:09.375Z,101911.58
2018-11-23T02:12:37.490Z,101902.99
2018-11-23T02:15:08.393Z,101900.41
2018-11-23T02:17:36.492Z,101907.25
2018-11-23T02:20:06.305Z,101903.84
2018-11-23T02:22:34.385Z,101893.52
2018-11-23T02:25:02.510Z,101894.79
2018-11-23T02:27:30.613Z,101897.38
2018-11-23T02:29:58.735Z,101898.24
2018-11-23T02:32:26.843Z,101901.23
2018-11-23T02:34:57.804Z,101896.12
2018-11-23T02:37:25.930Z,101889.23
2018-11-23T02:39:54.067Z,101891.78
2018-11-23T02:42:22.118Z,101893.07
2018-11-23T02:44:50.234Z,101893.52
2018-11-23T02:47:18.396Z,101889.65
2018-11-23T02:49:46.490Z,101888.83
2018-11-23T02:52:14.551Z,101884.08
2018-11-23T02:54:42.689Z,101884.53
2018-11-23T02:57:10.803Z,101881.50
2018-11-23T02:59:38.913Z,101886.66
2018-11-23T03:02:07.039Z,101880.65
2018-11-23T03:04:35.121Z,101880.67
2018-11-23T03:07:03.232Z,101882.37
2018-11-23T03:09:31.321Z,101880.22
2018-11-23T03:11:59.413Z,101881.05
2018-11-23T03:14:27.507Z,101879.34
2018-11-23T03:16:55.590Z,101881.09
2018-11-23T03:19:23.693Z,101876.37
2018-11-23T03:21:51.832Z,101872.52
2018-11-23T03:24:19.925Z,101872.05
2018-11-23T03:26:48.018Z,101867.73
2018-11-23T03:29:16.113Z,101870.33
2018-11-23T03:31:44.207Z,101869.05
2018-11-23T03:34:12.300Z,101867.76
2018-11-23T03:36:40.386Z,101865.62
2018-11-23T03:39:09.156Z,101866.44
2018-11-23T03:41:37.273Z,101860.00
2018-11-23T03:44:05.789Z,101863.89
2018-11-23T03:46:33.894Z,101863.04
2018-11-23T03:49:02.091Z,101861.73
2018-11-23T03:51:30.243Z,101856.59
2018-11-23T03:53:58.350Z,101863.87
2018-11-23T03:56:26.494Z,101863.45
2018-11-23T03:58:54.602Z,101869.02
2018-11-23T04:01:22.675Z,101868.19
2018-11-23T04:03:50.827Z,101863.02
2018-11-23T04:06:18.935Z,101866.91
2018-11-23T04:08:47.037Z,101866.02
2018-11-23T04:11:15.134Z,101862.59
2018-11-23T04:13:43.446Z,101861.30
2018-11-23T04:16:11.574Z,101865.61
2018-11-23T04:18:39.685Z,101857.43
2018-11-23T04:21:07.793Z,101856.16
2018-11-23T04:23:35.886Z,101860.88
2018-11-23T04:26:03.983Z,101854.03
2018-11-23T04:28:32.091Z,101854.02
2018-11-23T04:31:00.177Z,101857.45
2018-11-23T04:33:28.274Z,101855.28
2018-11-23T04:35:57.165Z,101853.98
2018-11-23T04:38:25.258Z,101852.73
2018-11-23T04:40:53.346Z,101853.16
2018-11-23T04:43:21.414Z,101856.16
2018-11-23T04:45:49.478Z,101854.44
2018-11-23T04:48:17.573Z,101847.14
2018-11-23T04:50:45.700Z,101850.55
2018-11-23T04:53:13.774Z,101848.84
2018-11-23T04:55:41.915Z,101854.44
2018-11-23T04:58:10.008Z,101847.10
2018-11-23T05:00:38.139Z,101855.27
2018-11-23T05:03:06.278Z,101853.14
2018-11-23T05:05:34.393Z,101850.55
2018-11-23T05:08:02.574Z,101850.14
2018-11-23T05:10:30.641Z,101860.87
2018-11-23T05:12:58.734Z,101865.58
2018-11-23T05:15:26.822Z,101865.17
2018-11-23T05:17:54.914Z,101862.16
2018-11-23T05:20:23.009Z,101860.85
2018-11-23T05:22:51.122Z,101858.71
2018-11-23T05:25:19.933Z,101856.55
2018-11-23T05:27:48.026Z,101855.70
2018-11-23T05:30:18.342Z,101858.28
2018-11-23T05:32:46.516Z,101861.31
2018-11-23T05:35:15.631Z,101857.88
2018-11-23T05:37:43.759Z,101855.73
2018-11-23T05:40:14.039Z,101850.98
2018-11-23T05:42:42.153Z,101854.42
2018-11-23T05:45:13.585Z,101853.58
2018-11-23T05:47:41.681Z,101854.84
2018-11-23T05:50:13.205Z,101854.00
2018-11-23T05:52:41.580Z,101850.54
2018-11-23T05:55:10.273Z,101847.56
2018-11-23T05:57:38.543Z,101854.42
2018-11-23T06:00:09.598Z,101854.88
2018-11-23T06:02:37.701Z,101842.40
2018-11-23T06:05:06.371Z,101843.70
2018-11-23T06:07:34.474Z,101837.25
2018-11-23T06:10:02.611Z,101837.70
2018-11-23T06:12:30.778Z,101836.86
2018-11-23T06:14:58.837Z,101831.70
2018-11-23T06:17:26.921Z,101835.99
2018-11-23T06:19:55.057Z,101837.69
2018-11-23T06:22:23.282Z,101840.25
2018-11-23T06:24:51.361Z,101835.11
2018-11-23T06:27:19.438Z,101834.25
2018-11-23T06:29:47.514Z,101836.82
2018-11-23T06:32:27.218Z,101841.13
2018-11-23T06:34:55.333Z,101840.27
2018-11-23T06:37:23.474Z,101836.83
2018-11-23T06:39:51.634Z,101845.84
2018-11-23T06:42:19.779Z,101840.25
2018-11-23T06:44:47.942Z,101842.86
2018-11-23T06:47:16.079Z,101831.69
2018-11-23T06:49:45.066Z,101835.14
2018-11-23T06:52:13.201Z,101829.12
2018-11-23T06:54:41.303Z,101830.00
2018-11-23T06:57:09.432Z,101829.13
2018-11-23T06:59:37.522Z,101835.56
2018-11-23T07:02:06.278Z,101838.13
2018-11-23T07:04:34.396Z,101840.69
2018-11-23T07:07:02.505Z,101841.55
2018-11-23T07:09:30.582Z,101842.84
2018-11-23T07:11:58.725Z,101842.42
2018-11-23T07:14:26.855Z,101843.28
2018-11-23T07:16:55.254Z,101846.72
2018-11-23T07:19:23.938Z,101842.83
2018-11-23T07:21:52.095Z,101841.56
2018-11-23T07:24:20.206Z,101840.28
2018-11-23T07:26:48.296Z,101846.30
2018-11-23T07:29:16.385Z,101849.28
2018-11-23T07:31:44.502Z,101850.12
2018-11-23T07:34:12.663Z,101858.73
2018-11-23T07:36:40.783Z,101854.86
2018-11-23T07:39:19.072Z,101852.73
2018-11-23T07:42:20.927Z,101850.58
2018-11-23T07:44:49.098Z,101847.98
2018-11-23T07:47:17.179Z,101842.38
2018-11-23T07:49:46.302Z,101845.42
2018-11-23T07:52:15.170Z,101849.72
2018-11-23T07:54:43.412Z,101848.42
2018-11-23T07:57:11.904Z,101847.56
2018-11-23T07:59:40.159Z,101844.58
2018-11-23T08:02:10.007Z,101846.73
2018-11-23T08:04:39.012Z,101847.16
2018-11-23T08:07:08.307Z,101850.19
2018-11-23T08:09:36.550Z,101843.72
2018-11-23T08:12:05.501Z,101844.99
2018-11-23T08:14:33.613Z,101845.41
2018-11-23T08:17:01.746Z,101844.59
2018-11-23T08:19:30.862Z,101845.88
2018-11-23T08:21:59.052Z,101843.29
2018-11-23T08:24:27.881Z,101840.69
2018-11-23T08:26:56.721Z,101842.00
2018-11-23T08:29:24.886Z,101844.56
2018-11-23T08:31:53.677Z,101840.30
2018-11-23T08:34:21.838Z,101835.11
2018-11-23T08:36:49.977Z,101833.83
2018-11-23T08:39:18.054Z,101835.11
2018-11-23T08:41:46.138Z,101840.25
2018-11-23T08:44:14.202Z,101841.11
2018-11-23T08:46:42.338Z,101838.11
2018-11-23T08:49:10.446Z,101838.16
2018-11-23T08:51:38.539Z,101836.87
2018-11-23T08:54:06.681Z,101836.87
2018-11-23T08:56:34.844Z,101835.16
2018-11-23T08:59:02.944Z,101830.84
2018-11-23T09:01:31.339Z,101829.58
2018-11-23T09:03:59.427Z,101826.12
2018-11-23T09:06:27.533Z,101825.27
2018-11-23T09:08:55.612Z,101829.98
2018-11-23T09:11:23.737Z,101826.13
2018-11-23T09:13:51.889Z,101822.69
2018-11-23T09:16:19.981Z,101823.98
2018-11-23T09:18:48.081Z,101826.57
2018-11-23T09:21:16.178Z,101820.98
2018-11-23T09:23:45.097Z,101815.83
2018-11-23T09:26:13.250Z,101810.69
2018-11-23T09:28:41.342Z,101810.23
2018-11-23T09:31:09.610Z,101806.82
2018-11-23T09:38:31.043Z,101803.37
2018-11-23T09:40:59.150Z,101799.92
2018-11-23T09:43:27.297Z,101804.22
2018-11-23T09:45:55.442Z,101802.52
2018-11-23T09:48:23.513Z,101802.50
2018-11-23T09:50:51.582Z,101801.22
2018-11-23T09:53:19.724Z,101805.97
2018-11-23T09:55:47.936Z,101802.93
2018-11-23T09:58:16.021Z,101806.36
2018-11-23T10:00:44.217Z,101792.63
2018-11-23T10:03:12.311Z,101791.76
2018-11-23T10:05:40.438Z,101790.48
2018-11-23T10:08:08.731Z,101784.47
2018-11-23T10:10:36.816Z,101779.73
2018-11-23T10:13:05.013Z,101777.13
2018-11-23T10:15:33.664Z,101776.73
2018-11-23T10:18:02.305Z,101773.72
2018-11-23T10:20:31.551Z,101776.30
2018-11-23T10:22:59.716Z,101774.15
2018-11-23T10:25:29.192Z,101770.28
2018-11-23T10:27:57.550Z,101771.14
2018-11-23T10:30:27.863Z,101769.88
2018-11-23T10:32:57.518Z,101775.03
2018-11-23T10:35:26.132Z,101779.33
2018-11-23T10:37:55.685Z,101772.03
2018-11-23T10:40:25.210Z,101763.41
2018-11-23T10:42:53.465Z,101759.97
2018-11-23T10:45:23.821Z,101760.84
2018-11-23T10:47:52.730Z,101761.70
2018-11-23T10:50:22.226Z,101749.23
2018-11-23T10:52:50.585Z,101752.21
2018-11-23T10:55:20.715Z,101753.06
2018-11-23T10:57:49.019Z,101750.09
2018-11-23T11:00:23.235Z,101747.05
2018-11-23T11:02:57.829Z,101741.04
2018-11-23T11:05:29.040Z,101742.33
2018-11-23T11:07:58.602Z,101741.08
2018-11-23T11:10:26.729Z,101735.05
2018-11-23T11:12:54.806Z,101734.20
2018-11-23T11:15:22.959Z,101732.45
2018-11-23T11:17:51.118Z,101724.28
2018-11-23T11:20:19.639Z,101720.41
2018-11-23T11:22:47.793Z,101716.92
2018-11-23T11:25:15.896Z,101718.27
2018-11-23T11:27:43.998Z,101717.44
2018-11-23T11:30:14.777Z,101714.00
2018-11-23T11:32:43.253Z,101709.67
2018-11-23T11:35:12.074Z,101704.94
2018-11-23T11:37:41.597Z,101709.67
2018-11-23T11:40:12.709Z,101698.48
2018-11-23T11:42:41.523Z,101695.48
2018-11-23T11:45:11.778Z,101689.04
2018-11-23T11:47:40.122Z,101694.63
2018-11-23T11:50:09.663Z,101690.76
2018-11-23T11:52:38.921Z,101678.71
2018-11-23T11:55:08.557Z,101683.44
2018-11-23T11:57:36.673Z,101676.55
2018-11-23T12:00:05.159Z,101681.71
2018-11-23T12:02:33.272Z,101681.20
2018-11-23T12:05:01.371Z,101666.09
2018-11-23T12:07:29.502Z,101671.23
2018-11-23T12:09:57.623Z,101673.81
2018-11-23T12:12:25.797Z,101669.02
2018-11-23T12:14:53.915Z,101671.13
2018-11-23T12:17:22.474Z,101670.20
2018-11-23T12:19:50.570Z,101662.51
2018-11-23T12:22:18.768Z,101660.47
2018-11-23T12:24:46.889Z,101660.95
2018-11-23T12:27:15.067Z,101656.70
2018-11-23T12:29:43.170Z,101656.23
2018-11-23T12:32:11.271Z,101660.95
2018-11-23T12:34:39.558Z,101659.65
2018-11-23T12:37:07.992Z,101648.92
2018-11-23T12:39:36.218Z,101651.11
2018-11-23T12:42:04.314Z,101643.32
2018-11-23T12:44:32.438Z,101638.91
2018-11-23T12:47:00.603Z,101637.17
2018-11-23T12:49:28.726Z,101635.42
2018-11-23T12:51:56.842Z,101638.11
2018-11-23T12:54:24.935Z,101633.86
2018-11-23T12:56:53.094Z,101635.16
2018-11-23T12:59:21.188Z,101629.53
2018-11-23T13:01:49.305Z,101626.88
2018-11-23T13:04:17.416Z,101636.72
2018-11-23T13:06:45.576Z,101637.56
2018-11-23T13:09:13.698Z,101633.16
2018-11-23T13:11:42.653Z,101635.86
2018-11-23T13:14:10.832Z,101626.37
2018-11-23T13:16:39.191Z,101623.44
2018-11-23T13:19:07.310Z,101623.94
2018-11-23T13:21:35.418Z,101627.80
2018-11-23T13:24:03.582Z,101621.34
2018-11-23T13:26:32.089Z,101623.95
2018-11-23T13:29:10.905Z,101616.17
2018-11-23T13:31:28.778Z,101615.27
2018-11-23T13:33:56.910Z,101611.38
2018-11-23T13:36:25.034Z,101610.41
2018-11-23T13:38:53.163Z,101616.05
2018-11-23T13:41:21.238Z,101612.23
2018-11-23T13:43:49.331Z,101609.52
2018-11-23T13:46:17.446Z,101609.92
2018-11-23T13:48:45.551Z,101605.94
2018-11-23T13:51:13.675Z,101603.78
2018-11-23T13:53:42.485Z,101603.34
2018-11-23T13:56:10.745Z,101604.66
2018-11-23T13:58:38.874Z,101607.66
2018-11-23T14:01:07.085Z,101606.01
2018-11-23T14:03:35.186Z,101596.55
2018-11-23T14:06:03.366Z,101601.42
2018-11-23T14:08:31.566Z,101594.98
2018-11-23T14:10:59.724Z,101597.92
2018-11-23T14:13:27.933Z,101598.30
2018-11-23T14:15:56.187Z,101590.95
2018-11-23T14:18:24.430Z,101587.45
2018-11-23T14:20:52.590Z,101587.84
2018-11-23T14:23:20.701Z,101584.52
2018-11-23T14:25:48.787Z,101585.36
2018-11-23T14:28:16.966Z,101587.45
2018-11-23T14:30:45.079Z,101589.58
2018-11-23T14:33:13.159Z,101593.59
2018-11-23T14:35:41.264Z,101582.95
2018-11-23T14:38:09.364Z,101579.05
2018-11-23T14:40:37.494Z,101580.72
2018-11-23T14:43:05.577Z,101578.93
2018-11-23T14:45:34.862Z,101574.95
2018-11-23T14:48:06.658Z,101573.22
2018-11-23T14:50:39.623Z,101566.92
2018-11-23T14:53:07.735Z,101578.12
2018-11-23T14:55:36.109Z,101572.47
2018-11-23T14:58:04.205Z,101576.40
2018-11-23T15:00:34.781Z,101575.08
2018-11-23T15:03:03.826Z,101574.10
2018-11-23T15:05:31.914Z,101575.38
2018-11-23T15:08:00.089Z,101573.84
2018-11-23T15:10:29.537Z,101581.63
2018-11-23T15:12:59.054Z,101582.91
2018-11-23T15:15:28.501Z,101582.55
2018-11-23T15:17:57.249Z,101579.10
2018-11-23T15:20:29.886Z,101576.52
2018-11-23T15:22:59.897Z,101575.62
2018-11-23T15:25:28.024Z,101567.58
2018-11-23T15:27:56.159Z,101566.23
2018-11-23T15:30:26.974Z,101563.23
2018-11-23T15:32:55.362Z,101559.75
2018-11-23T15:35:23.510Z,101562.31
2018-11-23T15:37:51.667Z,101560.14
2018-11-23T15:40:22.016Z,101558.31
2018-11-23T15:42:51.221Z,101553.59
2018-11-23T15:45:21.558Z,101548.81
2018-11-23T15:47:49.684Z,101548.37
2018-11-23T15:50:19.329Z,101549.24
2018-11-23T15:52:47.839Z,101554.42
2018-11-23T15:55:18.816Z,101549.72
2018-11-23T15:57:47.669Z,101555.75
2018-11-23T16:00:18.452Z,101555.69
2018-11-23T16:02:47.095Z,101548.81
2018-11-23T16:05:15.441Z,101548.39
2018-11-23T16:07:43.913Z,101547.99
2018-11-23T16:10:19.454Z,101557.00
2018-11-23T16:12:49.846Z,101559.17
2018-11-23T16:15:18.850Z,101558.77
2018-11-23T16:17:47.343Z,101555.73
2018-11-23T16:20:16.742Z,101551.52
2018-11-23T16:22:46.591Z,101559.16
2018-11-23T16:25:14.721Z,101551.82
2018-11-23T16:27:43.725Z,101551.03
2018-11-23T16:30:15.633Z,101548.02
2018-11-23T16:32:44.811Z,101545.95
2018-11-23T16:35:13.555Z,101545.50
2018-11-23T16:37:41.685Z,101544.09
2018-11-23T16:40:11.990Z,101535.94
2018-11-23T16:42:40.489Z,101537.20
2018-11-23T16:45:12.255Z,101540.07
2018-11-23T16:47:40.351Z,101535.86
2018-11-23T16:50:08.932Z,101530.71
2018-11-23T16:52:37.200Z,101540.07
2018-11-23T16:55:06.389Z,101541.80
2018-11-23T16:57:34.490Z,101535.39
2018-11-23T17:00:02.626Z,101533.34
2018-11-23T17:02:30.761Z,101535.48
2018-11-23T17:04:58.899Z,101534.27
2018-11-23T17:07:27.006Z,101535.11
2018-11-23T17:09:55.138Z,101538.47
2018-11-23T17:12:23.333Z,101542.69
2018-11-23T17:14:51.442Z,101535.03
2018-11-23T17:17:19.570Z,101535.39
2018-11-23T17:19:47.733Z,101527.74
2018-11-23T17:22:15.825Z,101528.92
2018-11-23T17:24:43.942Z,101516.09
2018-11-23T17:27:12.105Z,101522.14
2018-11-23T17:29:40.193Z,101526.58
2018-11-23T17:32:08.318Z,101524.86
2018-11-23T17:34:37.091Z,101521.31
2018-11-23T17:37:05.371Z,101523.84
2018-11-23T17:39:33.457Z,101520.82
2018-11-23T17:42:01.575Z,101524.63
2018-11-23T17:44:29.692Z,101522.89
2018-11-23T17:46:57.778Z,101518.23
2018-11-23T17:49:26.007Z,101522.05
2018-11-23T17:51:54.128Z,101525.87
2018-11-23T17:54:22.230Z,101519.14
2018-11-23T17:56:50.314Z,101513.52
2018-11-23T17:59:18.414Z,101515.30
2018-11-23T18:01:46.534Z,101510.09
2018-11-23T18:04:14.618Z,101512.64
2018-11-23T18:06:42.730Z,101502.30
2018-11-23T18:09:10.813Z,101504.06
2018-11-23T18:11:39.051Z,101510.12
2018-11-23T18:14:07.191Z,101506.17
2018-11-23T18:16:35.347Z,101505.67
2018-11-23T18:19:03.458Z,101507.38
2018-11-23T18:21:31.608Z,101503.33
2018-11-23T18:23:59.744Z,101504.57
2018-11-23T18:26:27.841Z,101502.95
2018-11-23T18:28:55.945Z,101509.80
2018-11-23T18:31:24.055Z,101502.84
2018-11-23T18:33:52.162Z,101501.62
2018-11-23T18:36:20.261Z,101503.39
2018-11-23T18:38:48.393Z,101507.23
2018-11-23T18:41:16.493Z,101502.51
2018-11-23T18:43:44.606Z,101507.14
2018-11-23T18:46:12.694Z,101499.47
2018-11-23T18:48:40.828Z,101501.56
2018-11-23T18:51:08.924Z,101501.19
2018-11-23T18:53:37.018Z,101494.22
2018-11-23T18:56:05.240Z,101495.08
2018-11-23T18:58:33.349Z,101493.05
2018-11-23T19:01:01.516Z,101492.16
2018-11-23T19:03:29.668Z,101491.28
2018-11-23T19:05:57.849Z,101483.89
2018-11-23T19:08:26.054Z,101483.98
2018-11-23T19:10:54.589Z,101478.83
2018-11-23T19:13:22.671Z,101480.55
2018-11-23T19:15:50.822Z,101482.25
2018-11-23T19:18:18.943Z,101479.56
2018-11-23T19:20:47.026Z,101476.53
2018-11-23T19:23:15.114Z,101474.80
2018-11-23T19:25:43.257Z,101476.09
2018-11-23T19:28:11.386Z,101474.36
2018-11-23T19:30:39.487Z,101469.67
2018-11-23T19:33:07.987Z,101474.11
2018-11-23T19:35:36.102Z,101471.88
2018-11-23T19:38:04.209Z,101463.72
2018-11-23T19:40:32.322Z,101458.16
2018-11-23T19:43:00.409Z,101455.04
2018-11-23T19:45:28.521Z,101459.28
2018-11-23T19:47:56.637Z,101451.56
2018-11-23T19:50:24.770Z,101443.37
2018-11-23T19:52:52.914Z,101435.95
2018-11-23T19:55:21.031Z,101440.66
2018-11-23T19:57:49.136Z,101430.91
2018-11-23T20:00:18.773Z,101420.11
2018-11-23T20:02:46.907Z,101410.66
2018-11-23T20:05:15.090Z,101411.09
2018-11-23T20:07:43.437Z,101415.30
2018-11-23T20:10:14.093Z,101410.99
2018-11-23T20:12:42.466Z,101408.35
2018-11-23T20:15:15.009Z,101402.73
2018-11-23T20:17:43.170Z,101401.90
2018-11-23T20:20:12.502Z,101389.44
2018-11-23T20:22:40.609Z,101395.91
2018-11-23T20:25:10.374Z,101392.14
2018-11-23T20:27:38.478Z,101396.48
2018-11-23T20:30:11.314Z,101390.36
2018-11-23T20:32:39.425Z,101388.12
2018-11-23T20:35:08.925Z,101379.09
2018-11-23T20:37:37.016Z,101389.41
2018-11-23T20:40:21.931Z,101387.30
2018-11-23T20:42:50.055Z,101389.17
2018-11-23T20:45:18.189Z,101392.94
2018-11-23T20:47:46.256Z,101389.02
2018-11-23T20:50:15.170Z,101390.27
2018-11-23T20:52:43.274Z,101375.14
2018-11-23T20:55:12.559Z,101378.59
2018-11-23T20:57:40.676Z,101378.66
2018-11-23T21:00:12.457Z,101376.02
2018-11-23T21:02:40.671Z,101372.55
2018-11-23T21:05:10.010Z,101370.83
2018-11-23T21:07:38.218Z,101372.12
2018-11-23T21:10:19.620Z,101373.39
2018-11-23T21:12:40.098Z,101375.92
2018-11-23T21:15:15.427Z,101372.47
2018-11-23T21:17:43.583Z,101369.89
2018-11-23T21:20:11.703Z,101373.78
2018-11-23T21:22:39.769Z,101377.31
2018-11-23T21:25:09.126Z,101370.42
2018-11-23T21:27:37.245Z,101366.59
2018-11-23T21:30:09.986Z,101366.98
2018-11-23T21:32:38.134Z,101365.53
2018-11-23T21:35:07.587Z,101361.70
2018-11-23T21:37:35.726Z,101356.89
2018-11-23T21:40:04.455Z,101354.33
2018-11-23T21:42:32.552Z,101362.13
2018-11-23T21:45:00.662Z,101360.18
2018-11-23T21:47:28.800Z,101358.05
2018-11-23T21:49:56.901Z,101351.02
2018-11-23T21:52:25.022Z,101347.09
2018-11-23T21:54:53.195Z,101346.23
2018-11-23T21:57:21.313Z,101341.70
2018-11-23T21:59:49.382Z,101339.47
2018-11-23T22:02:17.471Z,101342.89
2018-11-23T22:04:45.569Z,101345.44
2018-11-23T22:07:13.703Z,101344.92
2018-11-23T22:09:41.797Z,101347.92
2018-11-23T22:12:09.964Z,101348.73
2018-11-23T22:14:38.139Z,101347.45
2018-11-23T22:17:06.554Z,101344.02
2018-11-23T22:19:34.664Z,101344.41
2018-11-23T22:22:02.823Z,101340.46
2018-11-23T22:24:30.937Z,101338.39
2018-11-23T22:26:59.094Z,101334.06
2018-11-23T22:29:27.190Z,101332.80
2018-11-23T22:31:55.338Z,101329.78
2018-11-23T22:34:23.485Z,101325.13
2018-11-23T22:36:51.631Z,101322.56
2018-11-23T22:39:19.746Z,101320.59
2018-11-23T22:41:47.885Z,101317.19
2018-11-23T22:44:16.016Z,101315.94
2018-11-23T22:46:44.139Z,101312.55
2018-11-23T22:49:12.226Z,101320.33
2018-11-23T22:52:43.262Z,101323.78
2018-11-23T22:55:12.335Z,101322.07
2018-11-23T22:57:40.439Z,101316.79
2018-11-23T23:00:25.474Z,101311.92
2018-11-23T23:02:53.584Z,101309.39
2018-11-23T23:05:22.855Z,101309.77
2018-11-23T23:07:50.980Z,101305.50
2018-11-23T23:10:19.139Z,101296.06
2018-11-23T23:12:47.367Z,101295.10
2018-11-23T23:15:15.538Z,101289.95
2018-11-23T23:17:43.768Z,101295.41
2018-11-23T23:20:13.913Z,101288.73
2018-11-23T23:22:42.015Z,101293.06
2018-11-23T23:25:11.178Z,101298.72
2018-11-23T23:27:39.306Z,101294.49
2018-11-23T23:30:10.090Z,101295.38
2018-11-23T23:32:38.421Z,101306.14
2018-11-23T23:35:07.883Z,101307.92
2018-11-23T23:37:36.025Z,101308.39
2018-11-23T23:40:05.510Z,101306.66
2018-11-23T23:42:33.598Z,101296.94
2018-11-23T23:45:01.710Z,101288.28
2018-11-23T23:47:29.798Z,101281.41
2018-11-23T23:49:57.923Z,101277.10
2018-11-23T23:52:26.022Z,101281.39
2018-11-23T23:54:54.144Z,101275.20
2018-11-23T23:57:22.262Z,101266.55
2018-11-23T23:59:50.354Z,101264.88
